sensor_id;sensor_type;location;lat;lon;timestamp;pressure;altitude;pressure_sealevel;temperature;humidity
80202;BME280;69521;54.454;9.928;2023-05-10T00:00:21;100823.50;;;12.22;49.54
80202;BME280;69521;54.454;9.928;2023-05-10T00:02:48;100818.50;;;12.27;48.31
80202;BME280;69521;54.454;9.928;2023-05-10T00:05:14;100825.16;;;12.32;49.63
80202;BME280;69521;54.454;9.928;2023-05-10T00:07:39;100809.81;;;12.33;47.99
80202;BME280;69521;54.454;9.928;2023-05-10T00:10:05;100812.03;;;12.20;49.44
80202;BME280;69521;54.454;9.928;2023-05-10T00:12:31;100806.47;;;12.21;49.13
80202;BME280;69521;54.454;9.928;2023-05-10T00:14:56;100809.66;;;12.07;49.76
80202;BME280;69521;54.454;9.928;2023-05-10T00:17:21;100810.19;;;12.20;49.15
80202;BME280;69521;54.454;9.928;2023-05-10T00:19:47;100804.25;;;12.17;49.91
80202;BME280;69521;54.454;9.928;2023-05-10T00:22:12;100799.19;;;12.04;50.09
80202;BME280;69521;54.454;9.928;2023-05-10T00:24:37;100797.47;;;12.03;49.81
80202;BME280;69521;54.454;9.928;2023-05-10T00:27:02;100803.88;;;12.02;50.60
80202;BME280;69521;54.454;9.928;2023-05-10T00:29:29;100798.69;;;11.91;51.72
80202;BME280;69521;54.454;9.928;2023-05-10T00:31:54;100793.28;;;11.91;53.03
80202;BME280;69521;54.454;9.928;2023-05-10T00:34:20;100794.63;;;12.04;48.90
80202;BME280;69521;54.454;9.928;2023-05-10T00:36:45;100795.38;;;11.97;50.59
80202;BME280;69521;54.454;9.928;2023-05-10T00:39:10;100783.91;;;11.95;49.59
80202;BME280;69521;54.454;9.928;2023-05-10T00:41:36;100785.31;;;11.99;49.86
80202;BME280;69521;54.454;9.928;2023-05-10T00:44:01;100784.81;;;11.86;50.96
80202;BME280;69521;54.454;9.928;2023-05-10T00:46:27;100776.28;;;11.90;50.80
80202;BME280;69521;54.454;9.928;2023-05-10T00:48:53;100776.66;;;11.68;51.45
80202;BME280;69521;54.454;9.928;2023-05-10T00:51:19;100775.63;;;11.78;50.15
80202;BME280;69521;54.454;9.928;2023-05-10T00:53:45;100778.72;;;11.84;50.52
80202;BME280;69521;54.454;9.928;2023-05-10T00:56:11;100769.78;;;11.83;51.33
80202;BME280;69521;54.454;9.928;2023-05-10T00:58:38;100771.09;;;11.79;50.86
80202;BME280;69521;54.454;9.928;2023-05-10T01:01:04;100773.09;;;11.67;51.30
80202;BME280;69521;54.454;9.928;2023-05-10T01:03:30;100762.22;;;11.59;50.95
80202;BME280;69521;54.454;9.928;2023-05-10T01:05:56;100762.22;;;11.59;50.71
80202;BME280;69521;54.454;9.928;2023-05-10T01:08:22;100766.59;;;11.60;50.89
80202;BME280;69521;54.454;9.928;2023-05-10T01:10:47;100762.19;;;11.69;50.55
80202;BME280;69521;54.454;9.928;2023-05-10T01:13:26;100767.00;;;11.65;50.81
80202;BME280;69521;54.454;9.928;2023-05-10T01:15:54;100766.59;;;11.60;52.39
80202;BME280;69521;54.454;9.928;2023-05-10T01:18:20;100754.44;;;11.56;51.30
80202;BME280;69521;54.454;9.928;2023-05-10T01:20:48;100761.41;;;11.49;51.45
80202;BME280;69521;54.454;9.928;2023-05-10T01:23:37;100760.81;;;11.55;52.48
80202;BME280;69521;54.454;9.928;2023-05-10T01:26:24;100762.03;;;11.33;52.87
80202;BME280;69521;54.454;9.928;2023-05-10T01:29:19;100758.50;;;11.33;52.80
80202;BME280;69521;54.454;9.928;2023-05-10T01:32:11;100765.63;;;11.14;53.76
80202;BME280;69521;54.454;9.928;2023-05-10T01:37:16;100772.44;;;11.09;53.39
80202;BME280;69521;54.454;9.928;2023-05-10T01:39:48;100767.34;;;11.06;53.38
80202;BME280;69521;54.454;9.928;2023-05-10T01:42:21;100763.03;;;11.23;52.26
80202;BME280;69521;54.454;9.928;2023-05-10T01:45:07;100764.72;;;11.24;52.28
80202;BME280;69521;54.454;9.928;2023-05-10T01:47:44;100761.63;;;11.18;53.08
80202;BME280;69521;54.454;9.928;2023-05-10T01:50:20;100764.63;;;11.15;52.78
80202;BME280;69521;54.454;9.928;2023-05-10T01:52:51;100758.97;;;11.09;54.13
80202;BME280;69521;54.454;9.928;2023-05-10T01:55:21;100764.22;;;11.01;53.55
80202;BME280;69521;54.454;9.928;2023-05-10T01:57:51;100759.13;;;11.07;54.70
80202;BME280;69521;54.454;9.928;2023-05-10T02:00:18;100759.53;;;11.12;52.53
80202;BME280;69521;54.454;9.928;2023-05-10T02:02:46;100757.41;;;11.06;53.43
80202;BME280;69521;54.454;9.928;2023-05-10T02:05:14;100760.84;;;10.89;54.04
80202;BME280;69521;54.454;9.928;2023-05-10T02:07:41;100768.94;;;10.89;54.74
80202;BME280;69521;54.454;9.928;2023-05-10T02:10:09;100762.16;;;10.75;55.52
80202;BME280;69521;54.454;9.928;2023-05-10T02:12:36;100762.72;;;10.79;54.85
80202;BME280;69521;54.454;9.928;2023-05-10T02:15:05;100763.28;;;10.82;54.22
80202;BME280;69521;54.454;9.928;2023-05-10T02:17:32;100758.16;;;10.89;54.46
80202;BME280;69521;54.454;9.928;2023-05-10T02:19:59;100768.81;;;10.71;55.04
80202;BME280;69521;54.454;9.928;2023-05-10T02:22:26;100760.88;;;10.70;54.43
80202;BME280;69521;54.454;9.928;2023-05-10T02:24:54;100765.56;;;10.68;54.84
80202;BME280;69521;54.454;9.928;2023-05-10T02:27:21;100769.81;;;10.70;54.74
80202;BME280;69521;54.454;9.928;2023-05-10T02:29:48;100770.78;;;10.60;56.30
80202;BME280;69521;54.454;9.928;2023-05-10T02:32:15;100764.41;;;10.70;54.18
80202;BME280;69521;54.454;9.928;2023-05-10T02:34:42;100764.13;;;10.64;54.94
80202;BME280;69521;54.454;9.928;2023-05-10T02:37:07;100767.53;;;10.46;55.78
80202;BME280;69521;54.454;9.928;2023-05-10T02:39:33;100765.84;;;10.55;55.37
80202;BME280;69521;54.454;9.928;2023-05-10T02:42:00;100764.28;;;10.62;56.04
80202;BME280;69521;54.454;9.928;2023-05-10T02:44:28;100769.81;;;10.61;55.02
80202;BME280;69521;54.454;9.928;2023-05-10T02:46:56;100766.97;;;10.52;56.39
80202;BME280;69521;54.454;9.928;2023-05-10T02:49:22;100761.59;;;10.52;55.21
80202;BME280;69521;54.454;9.928;2023-05-10T02:51:51;100760.03;;;10.50;55.90
80202;BME280;69521;54.454;9.928;2023-05-10T02:54:22;100760.28;;;10.37;57.14
80202;BME280;69521;54.454;9.928;2023-05-10T02:56:57;100764.53;;;10.30;56.67
80202;BME280;69521;54.454;9.928;2023-05-10T02:59:23;100761.56;;;10.33;56.36
80202;BME280;69521;54.454;9.928;2023-05-10T03:01:48;100757.75;;;10.36;56.15
80202;BME280;69521;54.454;9.928;2023-05-10T03:04:13;100758.88;;;10.33;56.66
80202;BME280;69521;54.454;9.928;2023-05-10T03:06:39;100751.66;;;10.34;56.83
80202;BME280;69521;54.454;9.928;2023-05-10T03:09:05;100756.75;;;10.27;56.46
80202;BME280;69521;54.454;9.928;2023-05-10T03:11:50;100751.09;;;10.30;56.64
80202;BME280;69521;54.454;9.928;2023-05-10T03:17:15;100755.63;;;10.30;56.87
80202;BME280;69521;54.454;9.928;2023-05-10T03:19:55;100751.09;;;10.30;57.30
80202;BME280;69521;54.454;9.928;2023-05-10T03:22:28;100753.34;;;10.25;57.26
80202;BME280;69521;54.454;9.928;2023-05-10T03:24:56;100751.94;;;10.31;56.80
80202;BME280;69521;54.454;9.928;2023-05-10T03:27:23;100748.97;;;10.24;57.21
80202;BME280;69521;54.454;9.928;2023-05-10T03:29:51;100747.97;;;10.25;57.14
80202;BME280;69521;54.454;9.928;2023-05-10T03:32:17;100748.81;;;10.26;57.01
80202;BME280;69521;54.454;9.928;2023-05-10T03:34:42;100755.28;;;10.13;58.20
80202;BME280;69521;54.454;9.928;2023-05-10T03:37:10;100759.41;;;10.17;57.25
80202;BME280;69521;54.454;9.928;2023-05-10T03:39:36;100750.75;;;10.14;57.33
80202;BME280;69521;54.454;9.928;2023-05-10T03:42:01;100752.75;;;10.12;57.76
80202;BME280;69521;54.454;9.928;2023-05-10T03:44:27;100746.66;;;10.10;58.11
80202;BME280;69521;54.454;9.928;2023-05-10T03:46:52;100747.38;;;10.12;57.65
80202;BME280;69521;54.454;9.928;2023-05-10T03:49:20;100756.69;;;10.08;57.35
80202;BME280;69521;54.454;9.928;2023-05-10T03:51:48;100752.59;;;10.13;58.29
80202;BME280;69521;54.454;9.928;2023-05-10T03:54:33;100747.09;;;10.15;57.63
80202;BME280;69521;54.454;9.928;2023-05-10T03:56:59;100753.59;;;10.12;58.00
80202;BME280;69521;54.454;9.928;2023-05-10T03:59:26;100752.47;;;10.15;57.99
80202;BME280;69521;54.454;9.928;2023-05-10T04:01:51;100744.53;;;10.04;59.37
80202;BME280;69521;54.454;9.928;2023-05-10T04:04:17;100749.19;;;10.02;58.71
80202;BME280;69521;54.454;9.928;2023-05-10T04:06:44;100756.25;;;10.03;59.03
80202;BME280;69521;54.454;9.928;2023-05-10T04:09:09;100753.41;;;9.95;59.66
80202;BME280;69521;54.454;9.928;2023-05-10T04:11:35;100748.75;;;9.97;58.74
80202;BME280;69521;54.454;9.928;2023-05-10T04:14:00;100739.13;;;9.94;59.58
80202;BME280;69521;54.454;9.928;2023-05-10T04:16:25;100740.56;;;9.98;59.27
80202;BME280;69521;54.454;9.928;2023-05-10T04:18:51;100738.56;;;9.90;59.60
80202;BME280;69521;54.454;9.928;2023-05-10T04:21:16;100744.22;;;9.97;59.39
80202;BME280;69521;54.454;9.928;2023-05-10T04:23:41;100743.69;;;10.03;59.88
80202;BME280;69521;54.454;9.928;2023-05-10T04:26:07;100751.47;;;10.06;59.66
80202;BME280;69521;54.454;9.928;2023-05-10T04:28:32;100745.09;;;10.07;59.15
80202;BME280;69521;54.454;9.928;2023-05-10T04:31:05;100733.78;;;10.04;59.48
80202;BME280;69521;54.454;9.928;2023-05-10T04:33:31;100739.28;;;10.02;60.02
80202;BME280;69521;54.454;9.928;2023-05-10T04:35:56;100732.91;;;9.94;59.99
80202;BME280;69521;54.454;9.928;2023-05-10T04:38:22;100733.78;;;10.04;59.57
80202;BME280;69521;54.454;9.928;2023-05-10T04:40:47;100734.63;;;10.14;59.48
80202;BME280;69521;54.454;9.928;2023-05-10T04:43:13;100731.94;;;10.14;60.23
80202;BME280;69521;54.454;9.928;2023-05-10T04:45:38;100737.03;;;10.17;61.45
80202;BME280;69521;54.454;9.928;2023-05-10T04:48:03;100741.13;;;10.11;62.02
80202;BME280;69521;54.454;9.928;2023-05-10T04:50:29;100743.81;;;10.11;60.47
80202;BME280;69521;54.454;9.928;2023-05-10T04:52:55;100743.13;;;10.19;60.37
80202;BME280;69521;54.454;9.928;2023-05-10T04:55:20;100738.91;;;10.26;59.53
80202;BME280;69521;54.454;9.928;2023-05-10T04:57:46;100739.78;;;10.36;59.14
80202;BME280;69521;54.454;9.928;2023-05-10T05:00:11;100740.06;;;10.33;60.62
80202;BME280;69521;54.454;9.928;2023-05-10T05:02:37;100735.56;;;10.43;59.05
80202;BME280;69521;54.454;9.928;2023-05-10T05:05:02;100734.56;;;10.44;59.01
80202;BME280;69521;54.454;9.928;2023-05-10T05:07:28;100744.75;;;10.41;59.93
80202;BME280;69521;54.454;9.928;2023-05-10T05:09:53;100744.63;;;10.52;59.45
80202;BME280;69521;54.454;9.928;2023-05-10T05:12:18;100741.34;;;10.58;59.26
80202;BME280;69521;54.454;9.928;2023-05-10T05:14:44;100747.88;;;10.46;60.32
80202;BME280;69521;54.454;9.928;2023-05-10T05:17:09;100743.91;;;10.60;58.78
80202;BME280;69521;54.454;9.928;2023-05-10T05:19:34;100745.31;;;10.64;58.54
80202;BME280;69521;54.454;9.928;2023-05-10T05:22:00;100746.41;;;10.80;57.17
80202;BME280;69521;54.454;9.928;2023-05-10T05:24:26;100749.53;;;10.76;60.16
80202;BME280;69521;54.454;9.928;2023-05-10T05:26:51;100742.75;;;10.72;59.63
80202;BME280;69521;54.454;9.928;2023-05-10T05:29:16;100737.09;;;10.75;60.83
80202;BME280;69521;54.454;9.928;2023-05-10T05:31:42;100741.31;;;10.87;59.63
80202;BME280;69521;54.454;9.928;2023-05-10T05:34:07;100744.13;;;10.95;59.67
80202;BME280;69521;54.454;9.928;2023-05-10T05:36:36;100747.34;;;11.08;57.28
80202;BME280;69521;54.454;9.928;2023-05-10T05:39:03;100749.59;;;11.13;62.36
80202;BME280;69521;54.454;9.928;2023-05-10T05:41:28;100739.34;;;11.26;58.30
80202;BME280;69521;54.454;9.928;2023-05-10T05:43:54;100736.22;;;11.40;56.44
80202;BME280;69521;54.454;9.928;2023-05-10T05:46:19;100744.69;;;11.45;57.32
80202;BME280;69521;54.454;9.928;2023-05-10T05:48:44;100741.84;;;11.47;56.64
80202;BME280;69521;54.454;9.928;2023-05-10T05:51:10;100738.31;;;11.46;58.02
80202;BME280;69521;54.454;9.928;2023-05-10T05:53:35;100744.84;;;11.44;57.61
80202;BME280;69521;54.454;9.928;2023-05-10T05:56:01;100739.56;;;11.52;58.06
80202;BME280;69521;54.454;9.928;2023-05-10T05:58:27;100741.22;;;11.63;55.76
80202;BME280;69521;54.454;9.928;2023-05-10T06:00:53;100746.84;;;11.69;55.43
80202;BME280;69521;54.454;9.928;2023-05-10T06:03:18;100742.75;;;11.65;57.18
80202;BME280;69521;54.454;9.928;2023-05-10T06:05:44;100743.63;;;11.66;60.08
80202;BME280;69521;54.454;9.928;2023-05-10T06:08:09;100739.78;;;11.68;57.30
80202;BME280;69521;54.454;9.928;2023-05-10T06:10:35;100742.47;;;11.68;58.25
80202;BME280;69521;54.454;9.928;2023-05-10T06:13:00;100748.69;;;11.69;58.25
80202;BME280;69521;54.454;9.928;2023-05-10T06:15:26;100750.41;;;11.70;57.37
80202;BME280;69521;54.454;9.928;2023-05-10T06:17:52;100748.56;;;11.70;60.66
80202;BME280;69521;54.454;9.928;2023-05-10T06:20:17;100742.88;;;11.73;56.68
80202;BME280;69521;54.454;9.928;2023-05-10T06:22:43;100754.78;;;11.80;56.51
80202;BME280;69521;54.454;9.928;2023-05-10T06:25:09;100754.06;;;11.78;59.44
80202;BME280;69521;54.454;9.928;2023-05-10T06:27:34;100743.78;;;11.92;56.59
80202;BME280;69521;54.454;9.928;2023-05-10T06:30:00;100754.97;;;11.97;58.78
80202;BME280;69521;54.454;9.928;2023-05-10T06:32:28;100753.44;;;12.12;57.38
80202;BME280;69521;54.454;9.928;2023-05-10T06:34:53;100743.91;;;12.18;56.53
80202;BME280;69521;54.454;9.928;2023-05-10T06:37:18;100743.53;;;12.30;59.71
80202;BME280;69521;54.454;9.928;2023-05-10T06:39:44;100743.94;;;12.35;54.94
80202;BME280;69521;54.454;9.928;2023-05-10T06:42:09;100752.31;;;12.50;55.81
80202;BME280;69521;54.454;9.928;2023-05-10T06:44:35;100745.91;;;12.51;56.13
80202;BME280;69521;54.454;9.928;2023-05-10T06:47:03;100745.47;;;12.56;54.02
80202;BME280;69521;54.454;9.928;2023-05-10T06:49:28;100746.22;;;12.66;55.63
80202;BME280;69521;54.454;9.928;2023-05-10T06:51:55;100752.28;;;12.86;57.51
80202;BME280;69521;54.454;9.928;2023-05-10T06:54:20;100738.31;;;12.90;56.87
80202;BME280;69521;54.454;9.928;2023-05-10T06:56:46;100734.38;;;13.02;56.63
80202;BME280;69521;54.454;9.928;2023-05-10T06:59:11;100743.91;;;13.15;57.44
80202;BME280;69521;54.454;9.928;2023-05-10T07:01:38;100738.78;;;13.29;55.65
80202;BME280;69521;54.454;9.928;2023-05-10T07:04:03;100749.75;;;13.28;55.51
80202;BME280;69521;54.454;9.928;2023-05-10T07:06:29;100749.13;;;13.34;56.98
80202;BME280;69521;54.454;9.928;2023-05-10T07:08:54;100748.75;;;13.29;54.41
80202;BME280;69521;54.454;9.928;2023-05-10T07:11:20;100743.13;;;13.22;53.89
80202;BME280;69521;54.454;9.928;2023-05-10T07:13:45;100755.16;;;13.28;53.95
80202;BME280;69521;54.454;9.928;2023-05-10T07:16:11;100754.84;;;13.31;54.38
80202;BME280;69521;54.454;9.928;2023-05-10T07:18:37;100753.34;;;13.36;54.94
80202;BME280;69521;54.454;9.928;2023-05-10T07:21:02;100753.94;;;13.56;55.33
80202;BME280;69521;54.454;9.928;2023-05-10T07:23:28;100759.47;;;13.81;59.91
80202;BME280;69521;54.454;9.928;2023-05-10T07:25:54;100756.06;;;13.79;56.86
80202;BME280;69521;54.454;9.928;2023-05-10T07:28:20;100754.41;;;13.86;55.67
80202;BME280;69521;54.454;9.928;2023-05-10T07:30:45;100753.34;;;13.70;56.14
80202;BME280;69521;54.454;9.928;2023-05-10T07:33:12;100756.03;;;13.70;54.73
80202;BME280;69521;54.454;9.928;2023-05-10T07:35:38;100749.50;;;13.81;53.03
80202;BME280;69521;54.454;9.928;2023-05-10T07:38:04;100764.00;;;14.14;56.86
80202;BME280;69521;54.454;9.928;2023-05-10T07:40:29;100747.22;;;13.94;53.24
80202;BME280;69521;54.454;9.928;2023-05-10T07:42:55;100745.22;;;14.13;54.19
80202;BME280;69521;54.454;9.928;2023-05-10T07:45:21;100751.16;;;14.16;54.25
80202;BME280;69521;54.454;9.928;2023-05-10T07:47:47;100749.81;;;14.20;52.62
80202;BME280;69521;54.454;9.928;2023-05-10T07:50:13;100756.97;;;14.46;55.16
80202;BME280;69521;54.454;9.928;2023-05-10T07:52:39;100749.53;;;14.48;52.66
80202;BME280;69521;54.454;9.928;2023-05-10T07:55:05;100747.09;;;14.20;51.12
80202;BME280;69521;54.454;9.928;2023-05-10T07:57:33;100747.69;;;14.48;55.49
80202;BME280;69521;54.454;9.928;2023-05-10T07:59:58;100755.47;;;14.68;52.28
80202;BME280;69521;54.454;9.928;2023-05-10T08:02:23;100752.25;;;14.72;53.51
80202;BME280;69521;54.454;9.928;2023-05-10T08:04:49;100759.06;;;14.84;52.79
80202;BME280;69521;54.454;9.928;2023-05-10T08:07:14;100764.63;;;14.91;51.83
80202;BME280;69521;54.454;9.928;2023-05-10T08:09:40;100763.44;;;15.02;55.07
80202;BME280;69521;54.454;9.928;2023-05-10T08:12:05;100761.06;;;14.66;53.49
80202;BME280;69521;54.454;9.928;2023-05-10T08:14:31;100762.59;;;14.93;54.43
80202;BME280;69521;54.454;9.928;2023-05-10T08:16:56;100762.56;;;15.17;54.97
80202;BME280;69521;54.454;9.928;2023-05-10T08:19:21;100775.13;;;15.02;51.10
80202;BME280;69521;54.454;9.928;2023-05-10T08:21:48;100763.78;;;14.90;50.24
80202;BME280;69521;54.454;9.928;2023-05-10T08:24:13;100771.53;;;14.69;51.68
80202;BME280;69521;54.454;9.928;2023-05-10T08:26:38;100774.97;;;14.95;55.13
80202;BME280;69521;54.454;9.928;2023-05-10T08:29:04;100787.47;;;15.05;58.08
80202;BME280;69521;54.454;9.928;2023-05-10T08:31:29;100785.44;;;15.07;56.37
80202;BME280;69521;54.454;9.928;2023-05-10T08:33:55;100780.72;;;15.01;55.35
80202;BME280;69521;54.454;9.928;2023-05-10T08:36:20;100777.84;;;14.86;52.37
80202;BME280;69521;54.454;9.928;2023-05-10T08:38:53;100780.72;;;14.84;55.00
80202;BME280;69521;54.454;9.928;2023-05-10T08:41:22;100783.94;;;14.80;53.87
80202;BME280;69521;54.454;9.928;2023-05-10T08:43:52;100785.78;;;14.87;54.71
80202;BME280;69521;54.454;9.928;2023-05-10T08:46:19;100780.38;;;14.87;52.16
80202;BME280;69521;54.454;9.928;2023-05-10T08:48:45;100782.91;;;14.89;55.86
80202;BME280;69521;54.454;9.928;2023-05-10T08:51:18;100782.75;;;14.98;54.77
80202;BME280;69521;54.454;9.928;2023-05-10T08:53:44;100781.97;;;15.53;52.91
80202;BME280;69521;54.454;9.928;2023-05-10T08:56:09;100777.78;;;15.98;54.64
80202;BME280;69521;54.454;9.928;2023-05-10T08:58:36;100784.81;;;16.15;52.86
80202;BME280;69521;54.454;9.928;2023-05-10T09:01:03;100777.56;;;16.39;51.69
80202;BME280;69521;54.454;9.928;2023-05-10T09:03:29;100784.59;;;16.25;50.80
80202;BME280;69521;54.454;9.928;2023-05-10T09:05:55;100781.59;;;15.81;49.52
80202;BME280;69521;54.454;9.928;2023-05-10T09:08:25;100781.06;;;15.85;55.25
80202;BME280;69521;54.454;9.928;2023-05-10T09:10:51;100783.47;;;16.11;53.16
80202;BME280;69521;54.454;9.928;2023-05-10T09:13:18;100786.06;;;16.36;57.33
80202;BME280;69521;54.454;9.928;2023-05-10T09:15:45;100796.88;;;16.44;50.79
80202;BME280;69521;54.454;9.928;2023-05-10T09:18:11;100787.44;;;16.32;50.74
80202;BME280;69521;54.454;9.928;2023-05-10T09:20:36;100792.34;;;16.36;49.62
80202;BME280;69521;54.454;9.928;2023-05-10T09:23:02;100783.88;;;16.31;52.08
80202;BME280;69521;54.454;9.928;2023-05-10T09:25:27;100786.66;;;16.54;51.93
80202;BME280;69521;54.454;9.928;2023-05-10T09:27:53;100784.53;;;16.64;46.99
80202;BME280;69521;54.454;9.928;2023-05-10T09:30:26;100778.75;;;17.28;51.81
80202;BME280;69521;54.454;9.928;2023-05-10T09:32:52;100783.13;;;17.66;45.89
80202;BME280;69521;54.454;9.928;2023-05-10T09:35:20;100787.69;;;18.10;47.31
80202;BME280;69521;54.454;9.928;2023-05-10T09:37:48;100789.03;;;17.70;46.17
80202;BME280;69521;54.454;9.928;2023-05-10T09:40:19;100786.31;;;17.85;50.12
80202;BME280;69521;54.454;9.928;2023-05-10T09:42:53;100785.69;;;17.68;48.38
80202;BME280;69521;54.454;9.928;2023-05-10T09:45:19;100793.41;;;17.56;47.61
80202;BME280;69521;54.454;9.928;2023-05-10T09:47:45;100799.03;;;18.13;44.79
80202;BME280;69521;54.454;9.928;2023-05-10T09:50:11;100789.75;;;18.08;45.37
80202;BME280;69521;54.454;9.928;2023-05-10T09:52:55;100794.47;;;17.99;48.47
80202;BME280;69521;54.454;9.928;2023-05-10T09:55:25;100793.06;;;18.03;51.99
80202;BME280;69521;54.454;9.928;2023-05-10T09:58:01;100793.38;;;18.44;47.26
80202;BME280;69521;54.454;9.928;2023-05-10T10:00:27;100801.25;;;17.74;51.28
80202;BME280;69521;54.454;9.928;2023-05-10T10:02:57;100799.72;;;17.19;54.17
80202;BME280;69521;54.454;9.928;2023-05-10T10:05:30;100801.81;;;17.32;46.97
80202;BME280;69521;54.454;9.928;2023-05-10T10:07:57;100809.31;;;17.30;49.29
80202;BME280;69521;54.454;9.928;2023-05-10T10:10:26;100799.88;;;17.40;49.28
80202;BME280;69521;54.454;9.928;2023-05-10T10:12:53;100798.53;;;16.99;48.22
80202;BME280;69521;54.454;9.928;2023-05-10T10:15:20;100806.19;;;17.18;51.72
80202;BME280;69521;54.454;9.928;2023-05-10T10:17:46;100800.81;;;17.10;49.04
80202;BME280;69521;54.454;9.928;2023-05-10T10:20:13;100807.75;;;17.35;51.85
80202;BME280;69521;54.454;9.928;2023-05-10T10:22:39;100813.41;;;17.26;53.47
80202;BME280;69521;54.454;9.928;2023-05-10T10:25:05;100805.22;;;17.11;49.60
80202;BME280;69521;54.454;9.928;2023-05-10T10:27:41;100812.06;;;17.07;53.13
80202;BME280;69521;54.454;9.928;2023-05-10T10:33:58;100816.50;;;17.23;48.50
80202;BME280;69521;54.454;9.928;2023-05-10T10:36:15;100817.13;;;17.47;49.30
80202;BME280;69521;54.454;9.928;2023-05-10T10:41:50;100815.09;;;17.64;51.84
80202;BME280;69521;54.454;9.928;2023-05-10T10:52:36;100812.16;;;18.75;49.51
80202;BME280;69521;54.454;9.928;2023-05-10T10:57:32;100813.69;;;18.12;47.81
80202;BME280;69521;54.454;9.928;2023-05-10T11:02:46;100804.03;;;17.66;48.45
80202;BME280;69521;54.454;9.928;2023-05-10T11:05:40;100812.94;;;17.22;50.00
80202;BME280;69521;54.454;9.928;2023-05-10T11:08:17;100809.34;;;17.07;53.36
80202;BME280;69521;54.454;9.928;2023-05-10T11:13:47;100810.81;;;17.32;52.22
80202;BME280;69521;54.454;9.928;2023-05-10T11:19:03;100809.38;;;17.22;51.27
80202;BME280;69521;54.454;9.928;2023-05-10T11:21:30;100816.97;;;16.88;52.65
80202;BME280;69521;54.454;9.928;2023-05-10T11:23:57;100820.34;;;16.91;52.61
80202;BME280;69521;54.454;9.928;2023-05-10T11:26:30;100814.31;;;16.80;51.16
80202;BME280;69521;54.454;9.928;2023-05-10T11:28:56;100817.34;;;16.85;54.50
80202;BME280;69521;54.454;9.928;2023-05-10T11:31:22;100823.56;;;16.71;52.39
80202;BME280;69521;54.454;9.928;2023-05-10T11:33:52;100815.22;;;16.73;50.97
80202;BME280;69521;54.454;9.928;2023-05-10T11:36:20;100818.88;;;16.57;52.67
80202;BME280;69521;54.454;9.928;2023-05-10T11:38:46;100822.81;;;16.46;52.82
80202;BME280;69521;54.454;9.928;2023-05-10T11:41:13;100823.03;;;16.37;51.22
80202;BME280;69521;54.454;9.928;2023-05-10T11:43:39;100829.44;;;16.44;51.69
80202;BME280;69521;54.454;9.928;2023-05-10T11:46:06;100824.38;;;16.41;53.12
80202;BME280;69521;54.454;9.928;2023-05-10T11:48:31;100837.28;;;16.39;55.73
80202;BME280;69521;54.454;9.928;2023-05-10T11:50:57;100840.16;;;16.37;54.39
80202;BME280;69521;54.454;9.928;2023-05-10T11:53:26;100833.00;;;16.44;53.67
80202;BME280;69521;54.454;9.928;2023-05-10T11:55:52;100844.22;;;16.41;56.30
80202;BME280;69521;54.454;9.928;2023-05-10T11:58:23;100843.72;;;16.38;55.58
80202;BME280;69521;54.454;9.928;2023-05-10T12:01:00;100841.38;;;16.35;51.94
80202;BME280;69521;54.454;9.928;2023-05-10T12:03:26;100840.69;;;16.33;53.68
80202;BME280;69521;54.454;9.928;2023-05-10T12:05:52;100845.59;;;16.37;56.91
80202;BME280;69521;54.454;9.928;2023-05-10T12:08:26;100847.19;;;16.23;52.55
80202;BME280;69521;54.454;9.928;2023-05-10T12:10:53;100857.78;;;16.02;55.16
80202;BME280;69521;54.454;9.928;2023-05-10T12:13:20;100871.56;;;15.92;59.28
80202;BME280;69521;54.454;9.928;2023-05-10T12:15:46;100868.34;;;15.89;57.62
80202;BME280;69521;54.454;9.928;2023-05-10T12:18:12;100869.06;;;15.75;59.13
80202;BME280;69521;54.454;9.928;2023-05-10T12:20:39;100881.78;;;15.58;58.33
80202;BME280;69521;54.454;9.928;2023-05-10T12:23:05;100874.47;;;15.50;58.59
80202;BME280;69521;54.454;9.928;2023-05-10T12:25:34;100876.34;;;15.42;62.67
80202;BME280;69521;54.454;9.928;2023-05-10T12:28:03;100885.66;;;15.39;61.26
80202;BME280;69521;54.454;9.928;2023-05-10T12:30:31;100886.69;;;15.38;63.22
80202;BME280;69521;54.454;9.928;2023-05-10T12:35:32;100911.09;;;15.22;62.07
80202;BME280;69521;54.454;9.928;2023-05-10T12:37:58;100913.44;;;15.01;65.05
80202;BME280;69521;54.454;9.928;2023-05-10T12:40:24;100910.72;;;14.42;67.49
80202;BME280;69521;54.454;9.928;2023-05-10T12:42:50;100921.56;;;14.16;68.71
80202;BME280;69521;54.454;9.928;2023-05-10T12:45:17;100930.56;;;13.91;69.41
80202;BME280;69521;54.454;9.928;2023-05-10T12:47:43;100925.91;;;13.83;70.82
80202;BME280;69521;54.454;9.928;2023-05-10T12:50:08;100939.72;;;13.98;73.64
80202;BME280;69521;54.454;9.928;2023-05-10T12:52:34;100947.78;;;13.90;72.75
80202;BME280;69521;54.454;9.928;2023-05-10T12:54:59;100952.31;;;13.63;73.09
80202;BME280;69521;54.454;9.928;2023-05-10T12:57:25;100949.47;;;13.47;75.08
80202;BME280;69521;54.454;9.928;2023-05-10T12:59:50;100961.38;;;13.36;75.38
80202;BME280;69521;54.454;9.928;2023-05-10T13:02:16;100970.78;;;13.32;76.04
80202;BME280;69521;54.454;9.928;2023-05-10T13:04:44;100968.72;;;13.44;78.18
80202;BME280;69521;54.454;9.928;2023-05-10T13:07:09;100965.59;;;13.57;77.34
80202;BME280;69521;54.454;9.928;2023-05-10T13:09:35;100975.19;;;13.51;76.08
80202;BME280;69521;54.454;9.928;2023-05-10T13:12:00;100981.38;;;13.26;77.35
80202;BME280;69521;54.454;9.928;2023-05-10T13:14:26;100980.22;;;13.28;77.50
80202;BME280;69521;54.454;9.928;2023-05-10T13:16:52;100992.28;;;13.06;78.72
80202;BME280;69521;54.454;9.928;2023-05-10T13:19:17;100977.44;;;12.93;77.18
80202;BME280;69521;54.454;9.928;2023-05-10T13:21:43;100984.38;;;12.95;78.71
80202;BME280;69521;54.454;9.928;2023-05-10T13:24:10;100976.72;;;12.91;78.67